sensor_id;sensor_type;location;lat;lon;timestamp;temperature;humidity
2447;DHT22;26430;48.818;9.244;2023-05-10T00:01:07;14.70;99.90
2447;DHT22;26430;48.818;9.244;2023-05-10T00:03:33;14.80;99.90
2447;DHT22;26430;48.818;9.244;2023-05-10T00:05:59;14.70;99.90
2447;DHT22;26430;48.818;9.244;2023-05-10T00:08:24;14.70;99.90
2447;DHT22;26430;48.818;9.244;2023-05-10T00:10:51;14.50;99.90
2447;DHT22;26430;48.818;9.244;2023-05-10T00:13:17;14.40;99.90
2447;DHT22;26430;48.818;9.244;2023-05-10T00:15:43;14.30;99.90
2447;DHT22;26430;48.818;9.244;2023-05-10T00:18:08;14.20;99.90
2447;DHT22;26430;48.818;9.244;2023-05-10T00:20:34;14.20;99.90
2447;DHT22;26430;48.818;9.244;2023-05-10T00:22:59;14.10;99.90
2447;DHT22;26430;48.818;9.244;2023-05-10T00:25:25;14.00;99.90
2447;DHT22;26430;48.818;9.244;2023-05-10T00:27:50;13.90;99.90
2447;DHT22;26430;48.818;9.244;2023-05-10T00:30:16;13.90;99.90
2447;DHT22;26430;48.818;9.244;2023-05-10T00:32:42;13.90;99.90
2447;DHT22;26430;48.818;9.244;2023-05-10T00:35:08;13.90;99.90
2447;DHT22;26430;48.818;9.244;2023-05-10T00:37:34;13.80;99.90
2447;DHT22;26430;48.818;9.244;2023-05-10T00:39:59;13.60;99.90
2447;DHT22;26430;48.818;9.244;2023-05-10T00:42:25;13.60;99.90
2447;DHT22;26430;48.818;9.244;2023-05-10T00:44:50;13.70;99.90
2447;DHT22;26430;48.818;9.244;2023-05-10T00:47:16;13.60;99.90
2447;DHT22;26430;48.818;9.244;2023-05-10T00:49:43;13.70;99.90
2447;DHT22;26430;48.818;9.244;2023-05-10T00:52:09;13.70;99.90
2447;DHT22;26430;48.818;9.244;2023-05-10T00:54:35;13.70;99.90
2447;DHT22;26430;48.818;9.244;2023-05-10T00:57:00;13.70;99.90
2447;DHT22;26430;48.818;9.244;2023-05-10T00:59:26;13.70;99.90
2447;DHT22;26430;48.818;9.244;2023-05-10T01:01:52;13.70;99.90
2447;DHT22;26430;48.818;9.244;2023-05-10T01:04:18;13.70;99.90
2447;DHT22;26430;48.818;9.244;2023-05-10T01:06:47;13.70;99.90
2447;DHT22;26430;48.818;9.244;2023-05-10T01:09:12;13.70;99.90
2447;DHT22;26430;48.818;9.244;2023-05-10T01:11:38;13.70;99.90
2447;DHT22;26430;48.818;9.244;2023-05-10T01:14:05;13.60;99.90
2447;DHT22;26430;48.818;9.244;2023-05-10T01:16:42;13.60;99.90
2447;DHT22;26430;48.818;9.244;2023-05-10T01:19:35;13.70;99.90
2447;DHT22;26430;48.818;9.244;2023-05-10T01:22:07;13.60;99.90
2447;DHT22;26430;48.818;9.244;2023-05-10T01:27:14;13.60;99.90
2447;DHT22;26430;48.818;9.244;2023-05-10T01:35:07;13.50;99.90
2447;DHT22;26430;48.818;9.244;2023-05-10T01:37:46;13.50;99.90
2447;DHT22;26430;48.818;9.244;2023-05-10T01:40:17;13.70;99.90
2447;DHT22;26430;48.818;9.244;2023-05-10T01:42:51;13.70;99.90
2447;DHT22;26430;48.818;9.244;2023-05-10T01:48:14;13.70;99.90
2447;DHT22;26430;48.818;9.244;2023-05-10T01:50:43;13.60;99.90
2447;DHT22;26430;48.818;9.244;2023-05-10T01:53:12;13.70;99.90
2447;DHT22;26430;48.818;9.244;2023-05-10T01:55:52;13.80;99.90
2447;DHT22;26430;48.818;9.244;2023-05-10T01:58:25;13.70;99.90
2447;DHT22;26430;48.818;9.244;2023-05-10T02:00:53;13.70;99.90
2447;DHT22;26430;48.818;9.244;2023-05-10T02:03:22;13.70;99.90
2447;DHT22;26430;48.818;9.244;2023-05-10T02:05:49;13.80;99.90
2447;DHT22;26430;48.818;9.244;2023-05-10T02:08:17;13.80;99.90
2447;DHT22;26430;48.818;9.244;2023-05-10T02:10:45;13.90;99.90
2447;DHT22;26430;48.818;9.244;2023-05-10T02:13:12;13.70;99.90
2447;DHT22;26430;48.818;9.244;2023-05-10T02:15:40;13.70;99.90
2447;DHT22;26430;48.818;9.244;2023-05-10T02:18:07;13.70;99.90
2447;DHT22;26430;48.818;9.244;2023-05-10T02:20:35;13.70;99.90
2447;DHT22;26430;48.818;9.244;2023-05-10T02:23:02;13.50;99.90
2447;DHT22;26430;48.818;9.244;2023-05-10T02:25:28;13.30;99.90
2447;DHT22;26430;48.818;9.244;2023-05-10T02:27:56;13.40;99.90
2447;DHT22;26430;48.818;9.244;2023-05-10T02:30:22;13.50;99.90
2447;DHT22;26430;48.818;9.244;2023-05-10T02:32:50;13.70;99.90
2447;DHT22;26430;48.818;9.244;2023-05-10T02:35:16;13.80;99.90
2447;DHT22;26430;48.818;9.244;2023-05-10T02:37:43;13.80;99.90
2447;DHT22;26430;48.818;9.244;2023-05-10T02:40:10;13.70;99.90
2447;DHT22;26430;48.818;9.244;2023-05-10T02:42:38;13.50;99.90
2447;DHT22;26430;48.818;9.244;2023-05-10T02:45:10;13.60;99.90
2447;DHT22;26430;48.818;9.244;2023-05-10T02:47:37;13.70;99.90
2447;DHT22;26430;48.818;9.244;2023-05-10T02:50:03;13.80;99.90
2447;DHT22;26430;48.818;9.244;2023-05-10T02:52:33;13.60;99.90
2447;DHT22;26430;48.818;9.244;2023-05-10T02:55:02;13.70;99.90
2447;DHT22;26430;48.818;9.244;2023-05-10T02:57:33;13.60;99.90
2447;DHT22;26430;48.818;9.244;2023-05-10T02:59:59;13.70;99.90
2447;DHT22;26430;48.818;9.244;2023-05-10T03:02:26;13.50;99.90
2447;DHT22;26430;48.818;9.244;2023-05-10T03:04:52;13.50;99.90
2447;DHT22;26430;48.818;9.244;2023-05-10T03:07:17;13.70;99.90
2447;DHT22;26430;48.818;9.244;2023-05-10T03:09:47;13.80;99.90
2447;DHT22;26430;48.818;9.244;2023-05-10T03:15:25;14.10;99.90
2447;DHT22;26430;48.818;9.244;2023-05-10T03:18:23;14.10;99.90
2447;DHT22;26430;48.818;9.244;2023-05-10T03:20:51;14.00;99.90
2447;DHT22;26430;48.818;9.244;2023-05-10T03:25:44;14.00;99.90
2447;DHT22;26430;48.818;9.244;2023-05-10T03:28:12;13.90;99.90
2447;DHT22;26430;48.818;9.244;2023-05-10T03:30:38;14.00;99.90
2447;DHT22;26430;48.818;9.244;2023-05-10T03:33:05;13.90;99.90
2447;DHT22;26430;48.818;9.244;2023-05-10T03:35:31;13.80;99.90
2447;DHT22;26430;48.818;9.244;2023-05-10T03:37:57;13.80;99.90
2447;DHT22;26430;48.818;9.244;2023-05-10T03:40:23;13.80;99.90
2447;DHT22;26430;48.818;9.244;2023-05-10T03:42:49;13.90;99.90
2447;DHT22;26430;48.818;9.244;2023-05-10T03:45:14;13.70;99.90
2447;DHT22;26430;48.818;9.244;2023-05-10T03:47:40;13.60;99.90
2447;DHT22;26430;48.818;9.244;2023-05-10T03:50:06;13.70;99.90
2447;DHT22;26430;48.818;9.244;2023-05-10T03:52:32;13.60;99.90
2447;DHT22;26430;48.818;9.244;2023-05-10T03:54:58;13.70;99.90
2447;DHT22;26430;48.818;9.244;2023-05-10T03:57:23;13.70;99.90
2447;DHT22;26430;48.818;9.244;2023-05-10T03:59:49;13.60;99.90
2447;DHT22;26430;48.818;9.244;2023-05-10T04:02:15;13.60;99.90
2447;DHT22;26430;48.818;9.244;2023-05-10T04:04:41;13.70;99.90
2447;DHT22;26430;48.818;9.244;2023-05-10T04:07:07;13.60;99.90
2447;DHT22;26430;48.818;9.244;2023-05-10T04:09:33;13.60;99.90
2447;DHT22;26430;48.818;9.244;2023-05-10T04:11:59;13.60;99.90
2447;DHT22;26430;48.818;9.244;2023-05-10T04:14:27;13.70;99.90
2447;DHT22;26430;48.818;9.244;2023-05-10T04:16:53;13.70;99.90
2447;DHT22;26430;48.818;9.244;2023-05-10T04:19:18;13.60;99.90
2447;DHT22;26430;48.818;9.244;2023-05-10T04:21:44;13.50;99.90
2447;DHT22;26430;48.818;9.244;2023-05-10T04:24:09;13.50;99.90
2447;DHT22;26430;48.818;9.244;2023-05-10T04:26:35;13.50;99.90
2447;DHT22;26430;48.818;9.244;2023-05-10T04:29:01;13.50;99.90
2447;DHT22;26430;48.818;9.244;2023-05-10T04:31:26;13.60;99.90
2447;DHT22;26430;48.818;9.244;2023-05-10T04:33:53;13.30;99.90
2447;DHT22;26430;48.818;9.244;2023-05-10T04:36:18;13.10;99.90
2447;DHT22;26430;48.818;9.244;2023-05-10T04:38:44;13.20;99.90
2447;DHT22;26430;48.818;9.244;2023-05-10T04:41:10;13.40;99.90
2447;DHT22;26430;48.818;9.244;2023-05-10T04:43:36;13.50;99.90
2447;DHT22;26430;48.818;9.244;2023-05-10T04:46:02;13.40;99.90
2447;DHT22;26430;48.818;9.244;2023-05-10T04:48:28;13.50;99.90
2447;DHT22;26430;48.818;9.244;2023-05-10T04:50:53;13.60;99.90
2447;DHT22;26430;48.818;9.244;2023-05-10T04:53:19;13.60;99.90
2447;DHT22;26430;48.818;9.244;2023-05-10T04:55:45;13.60;99.90
2447;DHT22;26430;48.818;9.244;2023-05-10T04:58:11;13.50;99.90
2447;DHT22;26430;48.818;9.244;2023-05-10T05:00:36;13.40;99.90
2447;DHT22;26430;48.818;9.244;2023-05-10T05:03:02;13.50;99.90
2447;DHT22;26430;48.818;9.244;2023-05-10T05:05:28;13.50;99.90
2447;DHT22;26430;48.818;9.244;2023-05-10T05:07:54;13.50;99.90
2447;DHT22;26430;48.818;9.244;2023-05-10T05:10:19;13.60;99.90
2447;DHT22;26430;48.818;9.244;2023-05-10T05:12:45;13.60;99.90
2447;DHT22;26430;48.818;9.244;2023-05-10T05:15:10;13.60;99.90
2447;DHT22;26430;48.818;9.244;2023-05-10T05:17:36;13.60;99.90
2447;DHT22;26430;48.818;9.244;2023-05-10T05:20:02;13.40;99.90
2447;DHT22;26430;48.818;9.244;2023-05-10T05:22:28;13.30;99.90
2447;DHT22;26430;48.818;9.244;2023-05-10T05:24:54;13.40;99.90
2447;DHT22;26430;48.818;9.244;2023-05-10T05:27:20;13.50;99.90
2447;DHT22;26430;48.818;9.244;2023-05-10T05:29:56;13.60;99.90
2447;DHT22;26430;48.818;9.244;2023-05-10T05:32:22;13.40;99.90
2447;DHT22;26430;48.818;9.244;2023-05-10T05:34:48;13.50;99.90
2447;DHT22;26430;48.818;9.244;2023-05-10T05:37:19;13.70;99.90
2447;DHT22;26430;48.818;9.244;2023-05-10T05:39:45;13.80;99.90
2447;DHT22;26430;48.818;9.244;2023-05-10T05:42:12;13.70;99.90
2447;DHT22;26430;48.818;9.244;2023-05-10T05:44:38;13.60;99.90
2447;DHT22;26430;48.818;9.244;2023-05-10T05:47:04;13.70;99.90
2447;DHT22;26430;48.818;9.244;2023-05-10T05:49:30;13.50;99.90
2447;DHT22;26430;48.818;9.244;2023-05-10T05:52:03;13.60;99.90
2447;DHT22;26430;48.818;9.244;2023-05-10T05:54:29;13.60;99.90
2447;DHT22;26430;48.818;9.244;2023-05-10T05:56:59;13.50;99.90
2447;DHT22;26430;48.818;9.244;2023-05-10T05:59:25;13.70;99.90
2447;DHT22;26430;48.818;9.244;2023-05-10T06:01:50;13.60;99.90
2447;DHT22;26430;48.818;9.244;2023-05-10T06:04:17;13.90;99.90
2447;DHT22;26430;48.818;9.244;2023-05-10T06:06:43;13.90;99.90
2447;DHT22;26430;48.818;9.244;2023-05-10T06:09:08;13.70;99.90
2447;DHT22;26430;48.818;9.244;2023-05-10T06:11:34;13.60;99.90
2447;DHT22;26430;48.818;9.244;2023-05-10T06:14:01;13.80;99.90
2447;DHT22;26430;48.818;9.244;2023-05-10T06:16:27;13.80;99.90
2447;DHT22;26430;48.818;9.244;2023-05-10T06:18:53;14.00;99.90
2447;DHT22;26430;48.818;9.244;2023-05-10T06:21:18;14.10;99.90
2447;DHT22;26430;48.818;9.244;2023-05-10T06:23:44;14.00;99.90
2447;DHT22;26430;48.818;9.244;2023-05-10T06:26:10;13.90;99.90
2447;DHT22;26430;48.818;9.244;2023-05-10T06:28:35;13.90;99.90
2447;DHT22;26430;48.818;9.244;2023-05-10T06:31:03;13.70;99.90
2447;DHT22;26430;48.818;9.244;2023-05-10T06:33:29;13.90;99.90
2447;DHT22;26430;48.818;9.244;2023-05-10T06:35:55;14.00;99.90
2447;DHT22;26430;48.818;9.244;2023-05-10T06:38:21;13.90;99.90
2447;DHT22;26430;48.818;9.244;2023-05-10T06:40:46;13.70;99.90
2447;DHT22;26430;48.818;9.244;2023-05-10T06:43:12;13.70;99.90
2447;DHT22;26430;48.818;9.244;2023-05-10T06:45:38;13.70;99.90
2447;DHT22;26430;48.818;9.244;2023-05-10T06:48:03;13.80;99.90
2447;DHT22;26430;48.818;9.244;2023-05-10T06:50:29;13.90;99.90
2447;DHT22;26430;48.818;9.244;2023-05-10T06:52:54;14.00;99.90
2447;DHT22;26430;48.818;9.244;2023-05-10T06:55:21;14.00;99.90
2447;DHT22;26430;48.818;9.244;2023-05-10T06:57:46;14.00;99.90
2447;DHT22;26430;48.818;9.244;2023-05-10T07:00:13;13.80;99.90
2447;DHT22;26430;48.818;9.244;2023-05-10T07:02:39;14.00;99.90
2447;DHT22;26430;48.818;9.244;2023-05-10T07:05:05;14.10;99.90
2447;DHT22;26430;48.818;9.244;2023-05-10T07:07:31;13.90;99.90
2447;DHT22;26430;48.818;9.244;2023-05-10T07:09:56;14.00;99.90
2447;DHT22;26430;48.818;9.244;2023-05-10T07:12:23;13.90;99.90
2447;DHT22;26430;48.818;9.244;2023-05-10T07:14:49;13.90;99.90
2447;DHT22;26430;48.818;9.244;2023-05-10T07:17:14;14.10;99.90
2447;DHT22;26430;48.818;9.244;2023-05-10T07:19:40;14.00;99.90
2447;DHT22;26430;48.818;9.244;2023-05-10T07:22:06;14.20;99.90
2447;DHT22;26430;48.818;9.244;2023-05-10T07:24:32;14.00;99.90
2447;DHT22;26430;48.818;9.244;2023-05-10T07:26:58;13.90;99.90
2447;DHT22;26430;48.818;9.244;2023-05-10T07:29:24;14.10;99.90
2447;DHT22;26430;48.818;9.244;2023-05-10T07:31:49;14.30;99.90
2447;DHT22;26430;48.818;9.244;2023-05-10T07:34:15;14.40;99.90
2447;DHT22;26430;48.818;9.244;2023-05-10T07:36:41;14.40;99.90
2447;DHT22;26430;48.818;9.244;2023-05-10T07:39:06;14.40;99.90
2447;DHT22;26430;48.818;9.244;2023-05-10T07:41:32;14.60;99.90
2447;DHT22;26430;48.818;9.244;2023-05-10T07:43:58;14.60;99.90
2447;DHT22;26430;48.818;9.244;2023-05-10T07:46:23;14.80;99.90
2447;DHT22;26430;48.818;9.244;2023-05-10T07:48:49;14.80;99.90
2447;DHT22;26430;48.818;9.244;2023-05-10T07:51:15;14.90;99.90
2447;DHT22;26430;48.818;9.244;2023-05-10T07:53:40;15.00;99.90
2447;DHT22;26430;48.818;9.244;2023-05-10T07:56:26;15.00;99.90
2447;DHT22;26430;48.818;9.244;2023-05-10T07:58:55;14.90;99.90
2447;DHT22;26430;48.818;9.244;2023-05-10T08:01:21;14.80;99.90
2447;DHT22;26430;48.818;9.244;2023-05-10T08:03:47;14.90;99.90
2447;DHT22;26430;48.818;9.244;2023-05-10T08:06:13;14.90;99.90
2447;DHT22;26430;48.818;9.244;2023-05-10T08:08:39;14.90;99.90
2447;DHT22;26430;48.818;9.244;2023-05-10T08:11:04;14.90;99.90
2447;DHT22;26430;48.818;9.244;2023-05-10T08:13:30;14.80;99.90
2447;DHT22;26430;48.818;9.244;2023-05-10T08:15:56;14.70;99.90
2447;DHT22;26430;48.818;9.244;2023-05-10T08:18:22;14.60;99.90
2447;DHT22;26430;48.818;9.244;2023-05-10T08:20:47;14.80;99.90
2447;DHT22;26430;48.818;9.244;2023-05-10T08:23:13;14.90;99.90
2447;DHT22;26430;48.818;9.244;2023-05-10T08:25:39;14.90;99.90
2447;DHT22;26430;48.818;9.244;2023-05-10T08:28:05;15.00;99.90
2447;DHT22;26430;48.818;9.244;2023-05-10T08:30:30;15.10;99.90
2447;DHT22;26430;48.818;9.244;2023-05-10T08:32:56;15.20;99.90
2447;DHT22;26430;48.818;9.244;2023-05-10T08:35:21;15.30;99.90
2447;DHT22;26430;48.818;9.244;2023-05-10T08:37:47;15.40;99.90
2447;DHT22;26430;48.818;9.244;2023-05-10T08:40:14;15.60;99.90
2447;DHT22;26430;48.818;9.244;2023-05-10T08:42:44;15.80;99.90
2447;DHT22;26430;48.818;9.244;2023-05-10T08:45:13;15.80;99.90
2447;DHT22;26430;48.818;9.244;2023-05-10T08:47:41;15.80;99.90
2447;DHT22;26430;48.818;9.244;2023-05-10T08:50:07;15.80;99.90
2447;DHT22;26430;48.818;9.244;2023-05-10T08:52:36;15.70;99.90
2447;DHT22;26430;48.818;9.244;2023-05-10T08:55:04;15.70;99.90
2447;DHT22;26430;48.818;9.244;2023-05-10T08:57:29;15.40;99.90
2447;DHT22;26430;48.818;9.244;2023-05-10T08:59:55;15.60;99.90
2447;DHT22;26430;48.818;9.244;2023-05-10T09:02:21;15.70;99.90
2447;DHT22;26430;48.818;9.244;2023-05-10T09:04:47;15.80;99.90
2447;DHT22;26430;48.818;9.244;2023-05-10T09:07:14;16.00;99.90
2447;DHT22;26430;48.818;9.244;2023-05-10T09:09:39;16.20;99.90
2447;DHT22;26430;48.818;9.244;2023-05-10T09:12:05;16.30;99.90
2447;DHT22;26430;48.818;9.244;2023-05-10T09:14:34;16.20;99.90
2447;DHT22;26430;48.818;9.244;2023-05-10T09:17:00;16.40;99.90
2447;DHT22;26430;48.818;9.244;2023-05-10T09:19:27;16.50;99.90
2447;DHT22;26430;48.818;9.244;2023-05-10T09:21:53;16.60;99.90
2447;DHT22;26430;48.818;9.244;2023-05-10T09:24:19;16.50;99.90
2447;DHT22;26430;48.818;9.244;2023-05-10T09:26:48;16.60;99.90
2447;DHT22;26430;48.818;9.244;2023-05-10T09:29:14;16.60;99.90
2447;DHT22;26430;48.818;9.244;2023-05-10T09:31:50;16.70;99.90
2447;DHT22;26430;48.818;9.244;2023-05-10T09:34:28;16.80;99.90
2447;DHT22;26430;48.818;9.244;2023-05-10T09:36:59;16.80;99.90
2447;DHT22;26430;48.818;9.244;2023-05-10T09:39:33;16.90;99.90
2447;DHT22;26430;48.818;9.244;2023-05-10T09:42:01;16.80;99.90
2447;DHT22;26430;48.818;9.244;2023-05-10T09:44:29;16.80;99.90
2447;DHT22;26430;48.818;9.244;2023-05-10T09:46:54;16.80;99.90
2447;DHT22;26430;48.818;9.244;2023-05-10T09:49:21;16.90;99.90
2447;DHT22;26430;48.818;9.244;2023-05-10T09:51:48;17.20;99.90
2447;DHT22;26430;48.818;9.244;2023-05-10T09:54:22;17.30;99.90
2447;DHT22;26430;48.818;9.244;2023-05-10T09:56:49;17.10;99.90
2447;DHT22;26430;48.818;9.244;2023-05-10T09:59:14;16.90;99.90
2447;DHT22;26430;48.818;9.244;2023-05-10T10:01:41;17.10;99.90
2447;DHT22;26430;48.818;9.244;2023-05-10T10:04:09;17.10;99.90
2447;DHT22;26430;48.818;9.244;2023-05-10T10:06:36;17.00;99.90
2447;DHT22;26430;48.818;9.244;2023-05-10T10:09:02;16.80;99.90
2447;DHT22;26430;48.818;9.244;2023-05-10T10:11:28;16.60;99.90
2447;DHT22;26430;48.818;9.244;2023-05-10T10:13:54;16.50;99.90
2447;DHT22;26430;48.818;9.244;2023-05-10T10:16:20;16.50;99.90
2447;DHT22;26430;48.818;9.244;2023-05-10T10:18:47;16.80;99.90
2447;DHT22;26430;48.818;9.244;2023-05-10T10:21:14;17.10;99.90
2447;DHT22;26430;48.818;9.244;2023-05-10T10:23:40;17.20;99.90
2447;DHT22;26430;48.818;9.244;2023-05-10T10:26:06;17.10;99.90
2447;DHT22;26430;48.818;9.244;2023-05-10T10:34:27;16.80;99.90
2447;DHT22;26430;48.818;9.244;2023-05-10T10:36:54;16.70;99.90
2447;DHT22;26430;48.818;9.244;2023-05-10T10:39:20;16.60;99.90
2447;DHT22;26430;48.818;9.244;2023-05-10T10:41:54;16.70;99.90
2447;DHT22;26430;48.818;9.244;2023-05-10T10:52:39;17.50;99.90
2447;DHT22;26430;48.818;9.244;2023-05-10T10:57:53;17.00;99.90
2447;DHT22;26430;48.818;9.244;2023-05-10T11:03:05;17.30;99.90
2447;DHT22;26430;48.818;9.244;2023-05-10T11:05:42;17.70;99.90
2447;DHT22;26430;48.818;9.244;2023-05-10T11:08:27;17.70;99.90
2447;DHT22;26430;48.818;9.244;2023-05-10T11:16:19;17.60;99.90
2447;DHT22;26430;48.818;9.244;2023-05-10T11:18:58;17.40;99.90
2447;DHT22;26430;48.818;9.244;2023-05-10T11:21:24;17.50;99.90
2447;DHT22;26430;48.818;9.244;2023-05-10T11:23:54;17.50;99.90
2447;DHT22;26430;48.818;9.244;2023-05-10T11:26:36;17.40;99.90
2447;DHT22;26430;48.818;9.244;2023-05-10T11:29:02;17.30;99.90
2447;DHT22;26430;48.818;9.244;2023-05-10T11:31:30;17.20;99.90
2447;DHT22;26430;48.818;9.244;2023-05-10T11:33:57;17.30;99.90
2447;DHT22;26430;48.818;9.244;2023-05-10T11:36:33;17.10;99.90
2447;DHT22;26430;48.818;9.244;2023-05-10T11:38:59;16.90;99.90
2447;DHT22;26430;48.818;9.244;2023-05-10T11:41:27;16.80;99.90
2447;DHT22;26430;48.818;9.244;2023-05-10T11:43:54;16.70;99.90
2447;DHT22;26430;48.818;9.244;2023-05-10T11:46:22;16.60;99.90
2447;DHT22;26430;48.818;9.244;2023-05-10T11:48:52;16.70;99.90
2447;DHT22;26430;48.818;9.244;2023-05-10T11:51:22;16.50;99.90
2447;DHT22;26430;48.818;9.244;2023-05-10T11:53:50;16.70;99.90
2447;DHT22;26430;48.818;9.244;2023-05-10T11:56:16;16.80;99.90
2447;DHT22;26430;48.818;9.244;2023-05-10T11:58:42;16.90;99.90
2447;DHT22;26430;48.818;9.244;2023-05-10T12:01:08;16.80;99.90
2447;DHT22;26430;48.818;9.244;2023-05-10T12:03:34;16.90;99.90
2447;DHT22;26430;48.818;9.244;2023-05-10T12:06:01;16.70;99.90
2447;DHT22;26430;48.818;9.244;2023-05-10T12:08:28;16.70;99.90
2447;DHT22;26430;48.818;9.244;2023-05-10T12:11:05;16.60;99.90
2447;DHT22;26430;48.818;9.244;2023-05-10T12:13:31;16.50;99.90
2447;DHT22;26430;48.818;9.244;2023-05-10T12:15:59;16.30;99.90
2447;DHT22;26430;48.818;9.244;2023-05-10T12:18:39;16.30;99.90
2447;DHT22;26430;48.818;9.244;2023-05-10T12:21:05;16.00;99.90
2447;DHT22;26430;48.818;9.244;2023-05-10T12:23:31;16.00;99.90
2447;DHT22;26430;48.818;9.244;2023-05-10T12:26:02;16.00;99.90
2447;DHT22;26430;48.818;9.244;2023-05-10T12:28:30;16.10;99.90
2447;DHT22;26430;48.818;9.244;2023-05-10T12:30:57;16.20;99.90
2447;DHT22;26430;48.818;9.244;2023-05-10T12:33:24;16.30;99.90
2447;DHT22;26430;48.818;9.244;2023-05-10T12:35:51;16.40;99.90
2447;DHT22;26430;48.818;9.244;2023-05-10T12:38:33;16.20;99.90
2447;DHT22;26430;48.818;9.244;2023-05-10T12:41:07;16.10;99.90
2447;DHT22;26430;48.818;9.244;2023-05-10T12:43:33;16.30;99.90
2447;DHT22;26430;48.818;9.244;2023-05-10T12:46:10;16.50;99.90
2447;DHT22;26430;48.818;9.244;2023-05-10T12:48:37;16.50;99.90
2447;DHT22;26430;48.818;9.244;2023-05-10T12:51:04;16.70;99.90
2447;DHT22;26430;48.818;9.244;2023-05-10T12:53:30;16.90;99.90
2447;DHT22;26430;48.818;9.244;2023-05-10T12:55:56;16.90;99.90
2447;DHT22;26430;48.818;9.244;2023-05-10T12:58:22;16.60;99.90
2447;DHT22;26430;48.818;9.244;2023-05-10T13:00:47;16.60;99.90
2447;DHT22;26430;48.818;9.244;2023-05-10T13:03:13;16.60;99.90
2447;DHT22;26430;48.818;9.244;2023-05-10T13:05:39;16.50;99.90
2447;DHT22;26430;48.818;9.244;2023-05-10T13:08:05;16.60;99.90
2447;DHT22;26430;48.818;9.244;2023-05-10T13:10:31;16.50;99.90
2447;DHT22;26430;48.818;9.244;2023-05-10T13:12:57;16.60;99.90
2447;DHT22;26430;48.818;9.244;2023-05-10T13:15:23;16.60;99.90
2447;DHT22;26430;48.818;9.244;2023-05-10T13:17:49;16.60;99.90
2447;DHT22;26430;48.818;9.244;2023-05-10T13:20:14;16.70;99.90
2447;DHT22;26430;48.818;9.244;2023-05-10T13:22:41;16.80;99.90
2447;DHT22;26430;48.818;9.244;2023-05-10T13:25:07;16.80;99.90
2447;DHT22;26430;48.818;9.244;2023-05-10T13:27:33;16.70;99.90
2447;DHT22;26430;48.818;9.244;2023-05-10T13:29:59;16.70;99.90
2447;DHT22;26430;48.818;9.244;2023-05-10T13:32:25;16.50;99.90
2447;DHT22;26430;48.818;9.244;2023-05-10T13:34:51;16.50;99.90
2447;DHT22;26430;48.818;9.244;2023-05-10T13:37:17;16.60;99.90
2447;DHT22;26430;48.818;9.244;2023-05-10T13:39:42;16.50;99.90
2447;DHT22;26430;48.818;9.244;2023-05-10T13:42:08;16.50;99.90
2447;DHT22;26430;48.818;9.244;2023-05-10T13:44:34;16.50;99.90
2447;DHT22;26430;48.818;9.244;2023-05-10T13:46:59;16.40;99.90
2447;DHT22;26430;48.818;9.244;2023-05-10T13:49:25;16.40;99.90
2447;DHT22;26430;48.818;9.244;2023-05-10T13:51:51;16.50;99.90
2447;DHT22;26430;48.818;9.244;2023-05-10T13:54:17;16.90;99.90
2447;DHT22;26430;48.818;9.244;2023-05-10T13:56:45;17.00;99.90
2447;DHT22;26430;48.818;9.244;2023-05-10T13:59:12;16.90;99.90
2447;DHT22;26430;48.818;9.244;2023-05-10T14:01:39;16.80;99.90
2447;DHT22;26430;48.818;9.244;2023-05-10T14:04:05;16.90;99.90
2447;DHT22;26430;48.818;9.244;2023-05-10T14:06:30;16.90;99.90
2447;DHT22;26430;48.818;9.244;2023-05-10T14:08:56;16.90;99.90
2447;DHT22;26430;48.818;9.244;2023-05-10T14:11:21;16.90;99.90
2447;DHT22;26430;48.818;9.244;2023-05-10T14:13:48;16.60;99.90
2447;DHT22;26430;48.818;9.244;2023-05-10T14:16:14;16.80;99.90
2447;DHT22;26430;48.818;9.244;2023-05-10T14:18:40;16.90;99.90
2447;DHT22;26430;48.818;9.244;2023-05-10T14:21:05;16.90;99.90
2447;DHT22;26430;48.818;9.244;2023-05-10T14:23:31;17.10;99.90
2447;DHT22;26430;48.818;9.244;2023-05-10T14:25:57;17.30;99.90
2447;DHT22;26430;48.818;9.244;2023-05-10T14:28:22;17.40;99.90
2447;DHT22;26430;48.818;9.244;2023-05-10T14:30:49;17.40;99.90
2447;DHT22;26430;48.818;9.244;2023-05-10T14:33:14;17.30;99.90
2447;DHT22;26430;48.818;9.244;2023-05-10T14:35:40;17.40;99.90
2447;DHT22;26430;48.818;9.244;2023-05-10T14:38:05;17.50;99.90
2447;DHT22;26430;48.818;9.244;2023-05-10T14:40:31;17.60;99.90
2447;DHT22;26430;48.818;9.244;2023-05-10T14:42:57;17.20;99.90
2447;DHT22;26430;48.818;9.244;2023-05-10T14:45:22;16.90;99.90
2447;DHT22;26430;48.818;9.244;2023-05-10T14:47:49;16.60;99.90
2447;DHT22;26430;48.818;9.244;2023-05-10T14:50:15;16.70;99.90
2447;DHT22;26430;48.818;9.244;2023-05-10T14:52:41;16.70;99.90
2447;DHT22;26430;48.818;9.244;2023-05-10T14:55:07;16.80;99.90
2447;DHT22;26430;48.818;9.244;2023-05-10T14:57:33;17.00;99.90
2447;DHT22;26430;48.818;9.244;2023-05-10T14:59:58;17.00;99.90
2447;DHT22;26430;48.818;9.244;2023-05-10T15:02:24;17.10;99.90
2447;DHT22;26430;48.818;9.244;2023-05-10T15:04:50;17.00;99.90
2447;DHT22;26430;48.818;9.244;2023-05-10T15:07:16;17.10;99.90
2447;DHT22;26430;48.818;9.244;2023-05-10T15:09:46;16.90;99.90
2447;DHT22;26430;48.818;9.244;2023-05-10T15:12:12;17.00;99.90
2447;DHT22;26430;48.818;9.244;2023-05-10T15:14:37;17.20;99.90
2447;DHT22;26430;48.818;9.244;2023-05-10T15:17:05;17.30;99.90
2447;DHT22;26430;48.818;9.244;2023-05-10T15:19:31;17.50;99.90
2447;DHT22;26430;48.818;9.244;2023-05-10T15:21:58;17.60;99.90
2447;DHT22;26430;48.818;9.244;2023-05-10T15:24:24;17.50;99.90
2447;DHT22;26430;48.818;9.244;2023-05-10T15:26:50;17.30;99.90
2447;DHT22;26430;48.818;9.244;2023-05-10T15:29:15;17.40;99.90
2447;DHT22;26430;48.818;9.244;2023-05-10T15:31:46;17.50;99.90
2447;DHT22;26430;48.818;9.244;2023-05-10T15:34:11;17.50;99.90
2447;DHT22;26430;48.818;9.244;2023-05-10T15:36:38;17.60;99.90
2447;DHT22;26430;48.818;9.244;2023-05-10T15:39:03;17.70;99.90
2447;DHT22;26430;48.818;9.244;2023-05-10T15:41:29;17.70;99.90
2447;DHT22;26430;48.818;9.244;2023-05-10T15:43:55;17.80;99.90
2447;DHT22;26430;48.818;9.244;2023-05-10T15:46:21;17.70;99.90
2447;DHT22;26430;48.818;9.244;2023-05-10T15:48:46;17.80;99.90
2447;DHT22;26430;48.818;9.244;2023-05-10T15:51:12;17.80;99.90
2447;DHT22;26430;48.818;9.244;2023-05-10T15:53:38;17.80;99.90
2447;DHT22;26430;48.818;9.244;2023-05-10T15:56:04;17.80;99.90
2447;DHT22;26430;48.818;9.244;2023-05-10T15:58:30;17.70;99.90
2447;DHT22;26430;48.818;9.244;2023-05-10T16:00:55;17.60;99.90
2447;DHT22;26430;48.818;9.244;2023-05-10T16:03:22;17.70;99.90
2447;DHT22;26430;48.818;9.244;2023-05-10T16:05:47;17.60;99.90
2447;DHT22;26430;48.818;9.244;2023-05-10T16:08:13;17.60;99.90
2447;DHT22;26430;48.818;9.244;2023-05-10T16:10:39;17.60;99.90
2447;DHT22;26430;48.818;9.244;2023-05-10T16:13:05;17.60;99.90
2447;DHT22;26430;48.818;9.244;2023-05-10T16:15:30;17.60;99.90
2447;DHT22;26430;48.818;9.244;2023-05-10T16:17:56;17.40;99.90
2447;DHT22;26430;48.818;9.244;2023-05-10T16:20:22;17.30;99.90
2447;DHT22;26430;48.818;9.244;2023-05-10T16:22:48;17.40;99.90
2447;DHT22;26430;48.818;9.244;2023-05-10T16:25:14;17.50;99.90